Hauptseite
METAR-TAF:

METAR-TAF

Flughäfen :

Flughafen Kristiansand

Kristiansand, Norwegen

Breite: 58-12N, Länge: 008-05E, Höhe: 1 m

Beobachtung

Neuester Wetterbericht von vor 11 Minuten, um 22:50 UTC
Wind 5 kt aus Nordost
Temperatur 2°C
Luftfeuchtigkeit 87%
Luftdruck 1006 hPa
Sichtweite 10 km oder mehr

METAR: ENCN 162250Z AUTO 05005KT 9999 NCD 02/00 Q1006

Zeit: 01:01 (23:01 UTC)

Prognose

Neuester Wetterbericht von vor 5 Stunden und 1 Minuten, um 18:00 UTC
Gültige Prognose vom 16 um 18 UTC bis 16 um 21 UTC
Wind 5 kt aus Nordost
Sichtweite 10 km oder mehr
keine Wolken unter 1500 m und keine Kumulonimbus oder Gewitterwolken

TAF: ENCN 161800Z 1618/1621 04005KT CAVOK

Wetterbeobachtungen und Prognosen von mehr als 4000 Flughäfen (METAR und TAF Bericht).

Die verfügbaren Stationen werden durch gelbe und rote Markierungen auf der Karte dargestellt.

Führen Sie die Maus auf sie, um den Namen der Station zu sehen.

Darauf klicken, um die Beobachtung von Wetterbeobachtungen und Prognosen zu sehen.

Um die Karte zu ändern : klicken Sie auf den grünen Tasten mit einem schwarzen Kreuz Zum Vergrößern, auf den grünen Button mit einem Gedankenstrich zu verkleinern, oder auf die grünen Pfeile für benachbarte Karten.


METAR-TAF: